Hedley, Texas
Current Conditions -  °F | °C
As of 9:53 PM on Tuesday 21 Oct 2014 (Local Time) from KCDS Reporting Station
Clear Clear  
Wind Chill: 64°   Ceiling: Unl
Heat Index: 64°   Visibility: 10mi
Dew Point: 49°   Wind: 8mph
Humidity: 58%   Direction: 140°SE
Pressure: 30.05"   Gusts: NA
Location:  34.87°N, 100.66°W
Report Text: KCDS 220253Z AUTO 14007KT 10SM CLR 18/09 A3005 RMK AO2 SLP159 T01780094 51012
Loading
Personal Weather Stations






























Interactive Weather Map
Tropical Storm Tracking
New forecast layout! Learn more

10-Day Weather Forecast

Advertisements
Track Severe Weather on mobile